This is the latest recevied weather packets stored in our database for station/object SP3VBV-2. If no packets are shown the sender has not sent any weather packets the latest 10 day(s).
| Time | Temp. | Humidity | Pressure | Rain* | Wind** | Luminosity | Snow |
|---|---|---|---|---|---|---|---|
| 1777480922 | 8.89° C | 39% | 1027.9 hPa | - | - | - | - |
| 1777480899 | 9.44° C | 38% | 1027.8 hPa | - | - | - | - |
| 1777480300 | 10.56° C | 36% | 1027.8 hPa | - | - | - | - |
| 1777479107 | 11.11° C | 35% | 1027.7 hPa | - | - | - | - |
| 1777477898 | 9.44° C | 37% | 1027.7 hPa | - | - | - | - |
| 1777477298 | 8.33° C | 36% | 1027.7 hPa | - | - | - | - |
| 1777476698 | 9.44° C | 37% | 1027.7 hPa | - | - | - | - |
| 1777476098 | 9.44° C | 36% | 1027.8 hPa | - | - | - | - |
| 1777474984 | 8.89° C | 35% | 1027.7 hPa | - | - | - | - |
| 1777474898 | 10.56° C | 39% | 1027.5 hPa | - | - | - | - |
| 1777474298 | 9.44° C | 36% | 1027.8 hPa | - | - | - | - |
| 1777473698 | 8.89° C | 36% | 1027.7 hPa | - | - | - | - |
| 1777473098 | 7.78° C | 39% | 1027.9 hPa | - | - | - | - |
| 1777472499 | 8.33° C | 39% | 1027.9 hPa | - | - | - | - |
| 1777471311 | 8.33° C | 37% | 1028 hPa | - | - | - | - |
| 1777470622 | 8.89° C | 37% | 1027.8 hPa | - | - | - | - |
| 1777469633 | 8.89° C | 40% | 1027.7 hPa | - | - | - | - |
| 1777468911 | 8.89° C | 37% | 1027.8 hPa | - | - | - | - |
| 1777468313 | 8.33° C | 37% | 1027.8 hPa | - | - | - | - |
| 1777467706 | 7.78° C | 40% | 1027.9 hPa | - | - | - | - |
| 1777467106 | 10° C | 42% | 1027.7 hPa | - | - | - | - |
| 1777466508 | 8.33° C | 41% | 1027.8 hPa | - | - | - | - |
| 1777465936 | 7.78° C | 40% | 1028.1 hPa | - | - | - | - |
| 1777465307 | 7.22° C | 40% | 1028 hPa | - | - | - | - |
| 1777464706 | 7.78° C | 40% | 1027.9 hPa | - | - | - | - |
* Rain since midnight (hover to see other rain measurements)
** Current wind speed in m/s (hover to see current wind gust speed)